sensor_id;sensor_type;location;lat;lon;timestamp;temperature;humidity
8008;DHT22;4049;49.468;11.200;2023-01-31T00:01:05;2.90;99.90
8008;DHT22;4049;49.468;11.200;2023-01-31T00:03:33;2.90;99.90
8008;DHT22;4049;49.468;11.200;2023-01-31T00:06:13;2.90;99.90
8008;DHT22;4049;49.468;11.200;2023-01-31T00:08:42;2.90;99.90
8008;DHT22;4049;49.468;11.200;2023-01-31T00:11:09;2.90;99.90
8008;DHT22;4049;49.468;11.200;2023-01-31T00:13:36;2.90;99.90
8008;DHT22;4049;49.468;11.200;2023-01-31T00:16:04;2.90;99.90
8008;DHT22;4049;49.468;11.200;2023-01-31T00:18:31;2.90;99.90
8008;DHT22;4049;49.468;11.200;2023-01-31T00:21:02;2.90;99.90
8008;DHT22;4049;49.468;11.200;2023-01-31T00:23:29;2.90;99.90
8008;DHT22;4049;49.468;11.200;2023-01-31T00:26:08;2.90;99.90
8008;DHT22;4049;49.468;11.200;2023-01-31T00:28:35;2.90;99.90
8008;DHT22;4049;49.468;11.200;2023-01-31T00:31:01;2.90;99.90
8008;DHT22;4049;49.468;11.200;2023-01-31T00:33:28;2.90;99.90
8008;DHT22;4049;49.468;11.200;2023-01-31T00:35:55;2.90;99.90
8008;DHT22;4049;49.468;11.200;2023-01-31T00:38:22;2.90;99.90
8008;DHT22;4049;49.468;11.200;2023-01-31T00:40:51;2.80;99.90
8008;DHT22;4049;49.468;11.200;2023-01-31T00:43:19;2.90;99.90
8008;DHT22;4049;49.468;11.200;2023-01-31T00:45:46;2.90;99.90
8008;DHT22;4049;49.468;11.200;2023-01-31T00:48:13;2.80;99.90
8008;DHT22;4049;49.468;11.200;2023-01-31T00:50:40;2.80;99.90
8008;DHT22;4049;49.468;11.200;2023-01-31T00:53:06;2.90;99.90
8008;DHT22;4049;49.468;11.200;2023-01-31T00:55:33;2.80;99.90
8008;DHT22;4049;49.468;11.200;2023-01-31T00:58:00;2.80;99.90
8008;DHT22;4049;49.468;11.200;2023-01-31T01:00:28;2.80;99.90
8008;DHT22;4049;49.468;11.200;2023-01-31T01:02:55;2.80;99.90
8008;DHT22;4049;49.468;11.200;2023-01-31T01:05:22;2.80;99.90
8008;DHT22;4049;49.468;11.200;2023-01-31T01:07:50;2.80;99.90
8008;DHT22;4049;49.468;11.200;2023-01-31T01:10:17;2.80;99.90
8008;DHT22;4049;49.468;11.200;2023-01-31T01:12:44;2.80;99.90
8008;DHT22;4049;49.468;11.200;2023-01-31T01:15:11;2.80;99.90
8008;DHT22;4049;49.468;11.200;2023-01-31T01:17:39;2.80;99.90
8008;DHT22;4049;49.468;11.200;2023-01-31T01:20:07;2.80;99.90
8008;DHT22;4049;49.468;11.200;2023-01-31T01:22:34;2.70;99.90
8008;DHT22;4049;49.468;11.200;2023-01-31T01:25:01;2.70;99.90
8008;DHT22;4049;49.468;11.200;2023-01-31T01:27:28;2.70;99.90
8008;DHT22;4049;49.468;11.200;2023-01-31T01:29:56;2.70;99.90
8008;DHT22;4049;49.468;11.200;2023-01-31T01:32:23;2.70;99.90
8008;DHT22;4049;49.468;11.200;2023-01-31T01:34:51;2.70;99.90
8008;DHT22;4049;49.468;11.200;2023-01-31T01:37:18;2.60;99.90
8008;DHT22;4049;49.468;11.200;2023-01-31T01:39:45;2.60;99.90
8008;DHT22;4049;49.468;11.200;2023-01-31T01:42:14;2.60;99.90
8008;DHT22;4049;49.468;11.200;2023-01-31T01:44:47;2.60;99.90
8008;DHT22;4049;49.468;11.200;2023-01-31T01:47:24;2.60;99.90
8008;DHT22;4049;49.468;11.200;2023-01-31T01:49:55;2.60;99.90
8008;DHT22;4049;49.468;11.200;2023-01-31T01:52:25;2.60;99.90
8008;DHT22;4049;49.468;11.200;2023-01-31T01:54:57;2.60;99.90
8008;DHT22;4049;49.468;11.200;2023-01-31T01:57:27;2.60;99.90
8008;DHT22;4049;49.468;11.200;2023-01-31T02:00:03;2.60;99.90
8008;DHT22;4049;49.468;11.200;2023-01-31T02:02:33;2.50;99.90
8008;DHT22;4049;49.468;11.200;2023-01-31T02:05:02;2.50;99.90
8008;DHT22;4049;49.468;11.200;2023-01-31T02:07:29;2.50;99.90
8008;DHT22;4049;49.468;11.200;2023-01-31T02:10:00;2.50;99.90
8008;DHT22;4049;49.468;11.200;2023-01-31T02:12:29;2.50;99.90
8008;DHT22;4049;49.468;11.200;2023-01-31T02:14:57;2.50;99.90
8008;DHT22;4049;49.468;11.200;2023-01-31T02:17:25;2.50;99.90
8008;DHT22;4049;49.468;11.200;2023-01-31T02:20:02;2.50;99.90
8008;DHT22;4049;49.468;11.200;2023-01-31T02:22:32;2.50;99.90
8008;DHT22;4049;49.468;11.200;2023-01-31T02:34:15;2.40;99.90
8008;DHT22;4049;49.468;11.200;2023-01-31T02:36:55;2.40;99.90
8008;DHT22;4049;49.468;11.200;2023-01-31T02:39:30;2.50;99.90
8008;DHT22;4049;49.468;11.200;2023-01-31T02:42:06;2.40;99.90
8008;DHT22;4049;49.468;11.200;2023-01-31T02:44:44;2.40;99.90
8008;DHT22;4049;49.468;11.200;2023-01-31T02:47:47;2.40;99.90
8008;DHT22;4049;49.468;11.200;2023-01-31T02:50:21;2.40;99.90
8008;DHT22;4049;49.468;11.200;2023-01-31T02:52:54;2.40;99.90
8008;DHT22;4049;49.468;11.200;2023-01-31T02:55:27;2.40;99.90
8008;DHT22;4049;49.468;11.200;2023-01-31T02:58:15;2.40;99.90
8008;DHT22;4049;49.468;11.200;2023-01-31T03:00:45;2.40;99.90
8008;DHT22;4049;49.468;11.200;2023-01-31T03:03:18;2.40;99.90
8008;DHT22;4049;49.468;11.200;2023-01-31T03:06:37;2.40;99.90
8008;DHT22;4049;49.468;11.200;2023-01-31T03:09:03;2.30;99.90
8008;DHT22;4049;49.468;11.200;2023-01-31T03:11:37;2.30;99.90
8008;DHT22;4049;49.468;11.200;2023-01-31T03:14:12;2.30;99.90
8008;DHT22;4049;49.468;11.200;2023-01-31T03:16:46;2.30;99.90
8008;DHT22;4049;49.468;11.200;2023-01-31T03:19:37;2.30;99.90
8008;DHT22;4049;49.468;11.200;2023-01-31T03:22:09;2.30;99.90
8008;DHT22;4049;49.468;11.200;2023-01-31T03:24:41;2.20;99.90
8008;DHT22;4049;49.468;11.200;2023-01-31T03:27:09;2.20;99.90
8008;DHT22;4049;49.468;11.200;2023-01-31T03:29:37;2.20;99.90
8008;DHT22;4049;49.468;11.200;2023-01-31T03:32:09;2.20;99.90
8008;DHT22;4049;49.468;11.200;2023-01-31T03:34:37;2.10;99.90
8008;DHT22;4049;49.468;11.200;2023-01-31T03:37:10;2.10;99.90
8008;DHT22;4049;49.468;11.200;2023-01-31T03:39:41;2.10;99.90
8008;DHT22;4049;49.468;11.200;2023-01-31T03:42:14;2.10;99.90
8008;DHT22;4049;49.468;11.200;2023-01-31T03:44:48;2.10;99.90
8008;DHT22;4049;49.468;11.200;2023-01-31T03:47:22;2.10;99.90
8008;DHT22;4049;49.468;11.200;2023-01-31T03:49:51;2.00;99.90
8008;DHT22;4049;49.468;11.200;2023-01-31T03:52:23;2.00;99.90
8008;DHT22;4049;49.468;11.200;2023-01-31T03:54:54;2.00;99.90
8008;DHT22;4049;49.468;11.200;2023-01-31T03:57:24;2.00;99.90
8008;DHT22;4049;49.468;11.200;2023-01-31T03:59:57;2.00;99.90
8008;DHT22;4049;49.468;11.200;2023-01-31T04:02:27;2.00;99.90
8008;DHT22;4049;49.468;11.200;2023-01-31T04:04:59;2.00;99.90
8008;DHT22;4049;49.468;11.200;2023-01-31T04:07:29;2.00;99.90
8008;DHT22;4049;49.468;11.200;2023-01-31T04:09:56;1.90;99.90
8008;DHT22;4049;49.468;11.200;2023-01-31T04:12:23;1.90;99.90
8008;DHT22;4049;49.468;11.200;2023-01-31T04:14:50;2.00;99.90
8008;DHT22;4049;49.468;11.200;2023-01-31T04:17:17;1.90;99.90
8008;DHT22;4049;49.468;11.200;2023-01-31T04:19:44;1.90;99.90
8008;DHT22;4049;49.468;11.200;2023-01-31T04:22:10;1.90;99.90
8008;DHT22;4049;49.468;11.200;2023-01-31T04:24:38;1.90;99.90
8008;DHT22;4049;49.468;11.200;2023-01-31T04:27:05;1.90;99.90
8008;DHT22;4049;49.468;11.200;2023-01-31T04:29:32;1.90;99.90
8008;DHT22;4049;49.468;11.200;2023-01-31T04:31:59;1.90;99.90
8008;DHT22;4049;49.468;11.200;2023-01-31T04:34:26;1.90;99.90
8008;DHT22;4049;49.468;11.200;2023-01-31T04:36:52;2.00;99.90
8008;DHT22;4049;49.468;11.200;2023-01-31T04:39:19;1.90;99.90
8008;DHT22;4049;49.468;11.200;2023-01-31T04:41:47;1.90;99.90
8008;DHT22;4049;49.468;11.200;2023-01-31T04:44:14;1.90;99.90
8008;DHT22;4049;49.468;11.200;2023-01-31T04:46:41;2.00;99.90
8008;DHT22;4049;49.468;11.200;2023-01-31T04:49:08;2.00;99.90
8008;DHT22;4049;49.468;11.200;2023-01-31T04:51:34;1.90;99.90
8008;DHT22;4049;49.468;11.200;2023-01-31T04:54:01;2.00;99.90
8008;DHT22;4049;49.468;11.200;2023-01-31T04:56:28;2.00;99.90
8008;DHT22;4049;49.468;11.200;2023-01-31T04:58:58;2.00;99.90
8008;DHT22;4049;49.468;11.200;2023-01-31T05:01:25;2.00;99.90
8008;DHT22;4049;49.468;11.200;2023-01-31T05:03:52;2.00;99.90
8008;DHT22;4049;49.468;11.200;2023-01-31T05:06:18;2.00;99.90
8008;DHT22;4049;49.468;11.200;2023-01-31T05:08:45;2.00;99.90
8008;DHT22;4049;49.468;11.200;2023-01-31T05:11:13;2.00;99.90
8008;DHT22;4049;49.468;11.200;2023-01-31T05:13:39;2.00;99.90
8008;DHT22;4049;49.468;11.200;2023-01-31T05:16:09;2.00;99.90
8008;DHT22;4049;49.468;11.200;2023-01-31T05:18:37;2.00;99.90
8008;DHT22;4049;49.468;11.200;2023-01-31T05:21:05;2.00;99.90
8008;DHT22;4049;49.468;11.200;2023-01-31T05:23:32;2.00;99.90
8008;DHT22;4049;49.468;11.200;2023-01-31T05:25:59;2.00;99.90
8008;DHT22;4049;49.468;11.200;2023-01-31T05:28:26;2.00;99.90
8008;DHT22;4049;49.468;11.200;2023-01-31T05:30:53;2.00;99.90
8008;DHT22;4049;49.468;11.200;2023-01-31T05:33:21;2.00;99.90
8008;DHT22;4049;49.468;11.200;2023-01-31T05:35:48;2.00;99.90
8008;DHT22;4049;49.468;11.200;2023-01-31T05:38:15;2.00;99.90
8008;DHT22;4049;49.468;11.200;2023-01-31T05:40:41;2.00;99.90
8008;DHT22;4049;49.468;11.200;2023-01-31T05:43:08;2.00;99.90
8008;DHT22;4049;49.468;11.200;2023-01-31T05:45:35;2.10;99.90
8008;DHT22;4049;49.468;11.200;2023-01-31T05:48:02;2.10;99.90
8008;DHT22;4049;49.468;11.200;2023-01-31T05:50:30;2.10;99.90
8008;DHT22;4049;49.468;11.200;2023-01-31T05:52:58;2.00;99.90
8008;DHT22;4049;49.468;11.200;2023-01-31T05:55:28;2.10;99.90
8008;DHT22;4049;49.468;11.200;2023-01-31T05:57:55;2.00;99.90
8008;DHT22;4049;49.468;11.200;2023-01-31T06:00:22;2.10;99.90
8008;DHT22;4049;49.468;11.200;2023-01-31T06:02:49;2.10;99.90
8008;DHT22;4049;49.468;11.200;2023-01-31T06:05:16;2.10;99.90
8008;DHT22;4049;49.468;11.200;2023-01-31T06:07:44;2.00;99.90
8008;DHT22;4049;49.468;11.200;2023-01-31T06:10:11;2.10;99.90
8008;DHT22;4049;49.468;11.200;2023-01-31T06:12:39;2.00;99.90
8008;DHT22;4049;49.468;11.200;2023-01-31T06:15:07;2.00;99.90
8008;DHT22;4049;49.468;11.200;2023-01-31T06:17:34;2.10;99.90
8008;DHT22;4049;49.468;11.200;2023-01-31T06:20:01;2.00;99.90
8008;DHT22;4049;49.468;11.200;2023-01-31T06:22:27;2.00;99.90
8008;DHT22;4049;49.468;11.200;2023-01-31T06:24:55;2.10;99.90
8008;DHT22;4049;49.468;11.200;2023-01-31T06:27:22;2.10;99.90
8008;DHT22;4049;49.468;11.200;2023-01-31T06:29:49;2.10;99.90
8008;DHT22;4049;49.468;11.200;2023-01-31T06:32:16;2.00;99.90
8008;DHT22;4049;49.468;11.200;2023-01-31T06:34:43;2.10;99.90
8008;DHT22;4049;49.468;11.200;2023-01-31T06:37:09;2.00;99.90
8008;DHT22;4049;49.468;11.200;2023-01-31T06:39:36;2.00;99.90
8008;DHT22;4049;49.468;11.200;2023-01-31T06:42:07;2.10;99.90
8008;DHT22;4049;49.468;11.200;2023-01-31T06:44:34;2.10;99.90
8008;DHT22;4049;49.468;11.200;2023-01-31T06:47:02;2.10;99.90
8008;DHT22;4049;49.468;11.200;2023-01-31T06:49:29;2.10;99.90
8008;DHT22;4049;49.468;11.200;2023-01-31T06:51:56;2.10;99.90
8008;DHT22;4049;49.468;11.200;2023-01-31T06:54:22;2.10;99.90
8008;DHT22;4049;49.468;11.200;2023-01-31T06:56:49;2.10;99.90
8008;DHT22;4049;49.468;11.200;2023-01-31T06:59:17;2.10;99.90
8008;DHT22;4049;49.468;11.200;2023-01-31T07:01:44;2.10;99.90
8008;DHT22;4049;49.468;11.200;2023-01-31T07:04:11;2.10;99.90
8008;DHT22;4049;49.468;11.200;2023-01-31T07:06:38;2.10;99.90
8008;DHT22;4049;49.468;11.200;2023-01-31T07:09:05;2.10;99.90
8008;DHT22;4049;49.468;11.200;2023-01-31T07:11:32;2.10;99.90
8008;DHT22;4049;49.468;11.200;2023-01-31T07:13:59;2.10;99.90
8008;DHT22;4049;49.468;11.200;2023-01-31T07:16:27;2.20;99.90
8008;DHT22;4049;49.468;11.200;2023-01-31T07:18:55;2.20;99.90
8008;DHT22;4049;49.468;11.200;2023-01-31T07:21:23;2.20;99.90
8008;DHT22;4049;49.468;11.200;2023-01-31T07:23:50;2.20;99.90
8008;DHT22;4049;49.468;11.200;2023-01-31T07:26:17;2.20;99.90
8008;DHT22;4049;49.468;11.200;2023-01-31T07:28:44;2.20;99.90
8008;DHT22;4049;49.468;11.200;2023-01-31T07:31:13;2.20;99.90
8008;DHT22;4049;49.468;11.200;2023-01-31T07:33:41;2.30;99.90
8008;DHT22;4049;49.468;11.200;2023-01-31T07:36:11;2.30;99.90
8008;DHT22;4049;49.468;11.200;2023-01-31T07:38:39;2.30;99.90
8008;DHT22;4049;49.468;11.200;2023-01-31T07:41:06;2.30;99.90
8008;DHT22;4049;49.468;11.200;2023-01-31T07:43:35;2.30;99.90
8008;DHT22;4049;49.468;11.200;2023-01-31T07:46:05;2.30;99.90
8008;DHT22;4049;49.468;11.200;2023-01-31T07:48:33;2.40;99.90
8008;DHT22;4049;49.468;11.200;2023-01-31T07:51:01;2.40;99.90
8008;DHT22;4049;49.468;11.200;2023-01-31T07:53:30;2.40;99.90
8008;DHT22;4049;49.468;11.200;2023-01-31T07:56:05;2.40;99.90
8008;DHT22;4049;49.468;11.200;2023-01-31T07:58:33;2.50;99.90
8008;DHT22;4049;49.468;11.200;2023-01-31T08:01:00;2.50;99.90
8008;DHT22;4049;49.468;11.200;2023-01-31T08:03:41;2.50;99.90
8008;DHT22;4049;49.468;11.200;2023-01-31T08:06:10;2.50;99.90
8008;DHT22;4049;49.468;11.200;2023-01-31T08:08:39;2.60;99.90
8008;DHT22;4049;49.468;11.200;2023-01-31T08:11:06;2.60;99.90
8008;DHT22;4049;49.468;11.200;2023-01-31T08:13:36;2.70;99.90
8008;DHT22;4049;49.468;11.200;2023-01-31T08:16:04;2.70;99.90
8008;DHT22;4049;49.468;11.200;2023-01-31T08:18:31;2.70;99.90
8008;DHT22;4049;49.468;11.200;2023-01-31T08:20:58;2.70;99.90
8008;DHT22;4049;49.468;11.200;2023-01-31T08:23:27;2.70;99.90
8008;DHT22;4049;49.468;11.200;2023-01-31T08:25:59;2.70;99.90
8008;DHT22;4049;49.468;11.200;2023-01-31T08:28:27;2.70;99.90
8008;DHT22;4049;49.468;11.200;2023-01-31T08:30:53;2.70;99.90
8008;DHT22;4049;49.468;11.200;2023-01-31T08:33:20;2.70;99.90
8008;DHT22;4049;49.468;11.200;2023-01-31T08:35:47;2.70;99.90
8008;DHT22;4049;49.468;11.200;2023-01-31T08:38:14;2.80;99.90
8008;DHT22;4049;49.468;11.200;2023-01-31T08:40:42;2.80;99.90
8008;DHT22;4049;49.468;11.200;2023-01-31T08:43:09;2.90;99.90
8008;DHT22;4049;49.468;11.200;2023-01-31T08:45:36;2.80;99.90
8008;DHT22;4049;49.468;11.200;2023-01-31T08:48:04;2.90;99.90
8008;DHT22;4049;49.468;11.200;2023-01-31T08:50:31;2.90;99.90
8008;DHT22;4049;49.468;11.200;2023-01-31T08:52:59;2.90;99.90
8008;DHT22;4049;49.468;11.200;2023-01-31T08:55:27;2.90;99.90
8008;DHT22;4049;49.468;11.200;2023-01-31T08:57:56;2.90;99.90
8008;DHT22;4049;49.468;11.200;2023-01-31T09:00:23;2.90;99.90
8008;DHT22;4049;49.468;11.200;2023-01-31T09:02:50;2.90;99.90
8008;DHT22;4049;49.468;11.200;2023-01-31T09:05:17;2.80;99.90
8008;DHT22;4049;49.468;11.200;2023-01-31T09:07:44;2.90;99.90
8008;DHT22;4049;49.468;11.200;2023-01-31T09:10:11;2.90;99.90
8008;DHT22;4049;49.468;11.200;2023-01-31T09:12:38;2.90;99.90
8008;DHT22;4049;49.468;11.200;2023-01-31T09:15:07;2.80;99.90
8008;DHT22;4049;49.468;11.200;2023-01-31T09:17:34;2.80;99.90
8008;DHT22;4049;49.468;11.200;2023-01-31T09:20:01;2.80;99.90
8008;DHT22;4049;49.468;11.200;2023-01-31T09:22:31;2.80;99.90
8008;DHT22;4049;49.468;11.200;2023-01-31T09:24:58;2.80;99.90
8008;DHT22;4049;49.468;11.200;2023-01-31T09:27:25;2.80;99.90
8008;DHT22;4049;49.468;11.200;2023-01-31T09:29:53;2.80;99.90
8008;DHT22;4049;49.468;11.200;2023-01-31T09:32:21;2.80;99.90
8008;DHT22;4049;49.468;11.200;2023-01-31T09:34:48;2.80;99.90
8008;DHT22;4049;49.468;11.200;2023-01-31T09:37:15;2.80;99.90
8008;DHT22;4049;49.468;11.200;2023-01-31T09:39:42;2.80;99.90
8008;DHT22;4049;49.468;11.200;2023-01-31T09:42:16;2.80;99.90
8008;DHT22;4049;49.468;11.200;2023-01-31T09:44:53;2.80;99.90
8008;DHT22;4049;49.468;11.200;2023-01-31T09:47:24;2.80;99.90
8008;DHT22;4049;49.468;11.200;2023-01-31T09:49:56;2.90;99.90
8008;DHT22;4049;49.468;11.200;2023-01-31T09:52:25;2.90;99.90
8008;DHT22;4049;49.468;11.200;2023-01-31T09:54:53;2.90;99.90
8008;DHT22;4049;49.468;11.200;2023-01-31T09:57:28;2.90;99.90
8008;DHT22;4049;49.468;11.200;2023-01-31T10:00:05;2.90;99.90
8008;DHT22;4049;49.468;11.200;2023-01-31T10:02:50;2.90;99.90
8008;DHT22;4049;49.468;11.200;2023-01-31T10:05:29;2.90;99.90
8008;DHT22;4049;49.468;11.200;2023-01-31T10:08:05;3.00;99.90
8008;DHT22;4049;49.468;11.200;2023-01-31T10:10:37;3.00;99.90
8008;DHT22;4049;49.468;11.200;2023-01-31T10:13:10;3.10;99.90
8008;DHT22;4049;49.468;11.200;2023-01-31T10:15:42;3.10;99.90
8008;DHT22;4049;49.468;11.200;2023-01-31T10:18:16;3.20;99.90
8008;DHT22;4049;49.468;11.200;2023-01-31T10:20:49;3.20;99.90
8008;DHT22;4049;49.468;11.200;2023-01-31T10:23:21;3.30;99.90
8008;DHT22;4049;49.468;11.200;2023-01-31T10:25:52;3.40;99.90
8008;DHT22;4049;49.468;11.200;2023-01-31T10:28:24;3.40;99.90
8008;DHT22;4049;49.468;11.200;2023-01-31T10:30:56;3.40;99.90
8008;DHT22;4049;49.468;11.200;2023-01-31T10:33:33;3.50;99.90
8008;DHT22;4049;49.468;11.200;2023-01-31T10:36:08;3.40;99.90
8008;DHT22;4049;49.468;11.200;2023-01-31T10:38:40;3.50;99.90
8008;DHT22;4049;49.468;11.200;2023-01-31T10:41:17;3.60;99.90
8008;DHT22;4049;49.468;11.200;2023-01-31T10:43:49;3.60;99.90
8008;DHT22;4049;49.468;11.200;2023-01-31T10:46:19;3.60;99.90
8008;DHT22;4049;49.468;11.200;2023-01-31T10:48:48;3.70;99.90
8008;DHT22;4049;49.468;11.200;2023-01-31T10:51:26;3.70;99.90
8008;DHT22;4049;49.468;11.200;2023-01-31T10:54:04;3.70;99.90
8008;DHT22;4049;49.468;11.200;2023-01-31T10:56:41;3.70;99.90
8008;DHT22;4049;49.468;11.200;2023-01-31T10:59:13;3.80;99.90
8008;DHT22;4049;49.468;11.200;2023-01-31T11:01:43;3.80;99.90
8008;DHT22;4049;49.468;11.200;2023-01-31T11:04:23;3.90;99.90
8008;DHT22;4049;49.468;11.200;2023-01-31T11:06:51;3.90;99.90
8008;DHT22;4049;49.468;11.200;2023-01-31T11:09:18;3.90;99.90
8008;DHT22;4049;49.468;11.200;2023-01-31T11:11:56;3.90;99.90
8008;DHT22;4049;49.468;11.200;2023-01-31T11:14:25;4.00;99.90
8008;DHT22;4049;49.468;11.200;2023-01-31T11:16:57;3.90;99.90
8008;DHT22;4049;49.468;11.200;2023-01-31T11:19:31;4.00;99.90
8008;DHT22;4049;49.468;11.200;2023-01-31T11:21:59;3.90;99.90
8008;DHT22;4049;49.468;11.200;2023-01-31T11:24:29;3.90;99.90
8008;DHT22;4049;49.468;11.200;2023-01-31T11:26:59;3.90;99.90
8008;DHT22;4049;49.468;11.200;2023-01-31T11:29:29;3.90;99.90
8008;DHT22;4049;49.468;11.200;2023-01-31T11:31:58;3.80;99.90
8008;DHT22;4049;49.468;11.200;2023-01-31T11:34:28;3.80;99.90
8008;DHT22;4049;49.468;11.200;2023-01-31T11:37:08;3.90;99.90
8008;DHT22;4049;49.468;11.200;2023-01-31T11:39:38;4.00;99.90
8008;DHT22;4049;49.468;11.200;2023-01-31T11:42:10;4.20;99.90
8008;DHT22;4049;49.468;11.200;2023-01-31T11:44:56;4.50;99.90
8008;DHT22;4049;49.468;11.200;2023-01-31T11:47:27;4.70;99.90
8008;DHT22;4049;49.468;11.200;2023-01-31T11:49:59;4.80;99.90
8008;DHT22;4049;49.468;11.200;2023-01-31T11:52:28;4.80;99.90
8008;DHT22;4049;49.468;11.200;2023-01-31T11:54:57;4.80;99.90
8008;DHT22;4049;49.468;11.200;2023-01-31T11:57:27;4.80;99.90
8008;DHT22;4049;49.468;11.200;2023-01-31T11:59:56;4.80;99.90
8008;DHT22;4049;49.468;11.200;2023-01-31T12:02:29;4.70;99.90
8008;DHT22;4049;49.468;11.200;2023-01-31T12:04:58;4.70;99.90
8008;DHT22;4049;49.468;11.200;2023-01-31T12:07:29;4.60;99.90
8008;DHT22;4049;49.468;11.200;2023-01-31T12:09:58;4.60;99.90
8008;DHT22;4049;49.468;11.200;2023-01-31T12:12:28;4.60;99.90
8008;DHT22;4049;49.468;11.200;2023-01-31T12:14:59;4.50;99.90
8008;DHT22;4049;49.468;11.200;2023-01-31T12:17:28;4.50;99.90
8008;DHT22;4049;49.468;11.200;2023-01-31T12:20:15;4.40;99.90
8008;DHT22;4049;49.468;11.200;2023-01-31T12:22:48;4.40;99.90
8008;DHT22;4049;49.468;11.200;2023-01-31T12:25:25;4.30;99.90
8008;DHT22;4049;49.468;11.200;2023-01-31T12:28:03;4.30;99.90
8008;DHT22;4049;49.468;11.200;2023-01-31T12:30:43;4.20;99.90
8008;DHT22;4049;49.468;11.200;2023-01-31T12:33:27;4.20;99.90
8008;DHT22;4049;49.468;11.200;2023-01-31T12:36:16;4.10;99.90
8008;DHT22;4049;49.468;11.200;2023-01-31T12:39:02;4.10;99.90
8008;DHT22;4049;49.468;11.200;2023-01-31T12:41:37;4.00;99.90
8008;DHT22;4049;49.468;11.200;2023-01-31T12:44:28;4.00;99.90
8008;DHT22;4049;49.468;11.200;2023-01-31T12:47:11;3.90;99.90
8008;DHT22;4049;49.468;11.200;2023-01-31T12:49:53;3.90;99.90
8008;DHT22;4049;49.468;11.200;2023-01-31T12:52:30;3.80;99.90
8008;DHT22;4049;49.468;11.200;2023-01-31T12:55:09;3.70;99.90
8008;DHT22;4049;49.468;11.200;2023-01-31T12:57:45;3.70;99.90
8008;DHT22;4049;49.468;11.200;2023-01-31T13:00:25;3.70;99.90
8008;DHT22;4049;49.468;11.200;2023-01-31T13:03:04;3.70;99.90
8008;DHT22;4049;49.468;11.200;2023-01-31T13:05:37;3.70;99.90
8008;DHT22;4049;49.468;11.200;2023-01-31T13:08:15;3.60;99.90
8008;DHT22;4049;49.468;11.200;2023-01-31T13:10:45;3.60;99.90
8008;DHT22;4049;49.468;11.200;2023-01-31T13:13:18;3.60;99.90
8008;DHT22;4049;49.468;11.200;2023-01-31T13:15:49;3.60;99.90
8008;DHT22;4049;49.468;11.200;2023-01-31T13:18:17;3.60;99.90
8008;DHT22;4049;49.468;11.200;2023-01-31T13:20:47;3.50;99.90
8008;DHT22;4049;49.468;11.200;2023-01-31T13:23:20;3.50;99.90
8008;DHT22;4049;49.468;11.200;2023-01-31T13:25:50;3.50;99.90
8008;DHT22;4049;49.468;11.200;2023-01-31T13:28:22;3.50;99.90
8008;DHT22;4049;49.468;11.200;2023-01-31T13:30:54;3.50;99.90
8008;DHT22;4049;49.468;11.200;2023-01-31T13:33:30;3.50;99.90
8008;DHT22;4049;49.468;11.200;2023-01-31T13:36:07;3.40;99.90
8008;DHT22;4049;49.468;11.200;2023-01-31T13:38:42;3.40;99.90
8008;DHT22;4049;49.468;11.200;2023-01-31T13:41:16;3.40;99.90
8008;DHT22;4049;49.468;11.200;2023-01-31T13:43:43;3.40;99.90
8008;DHT22;4049;49.468;11.200;2023-01-31T13:46:12;3.40;99.90
8008;DHT22;4049;49.468;11.200;2023-01-31T13:48:43;3.40;99.90
8008;DHT22;4049;49.468;11.200;2023-01-31T13:51:15;3.40;99.90
8008;DHT22;4049;49.468;11.200;2023-01-31T13:53:49;3.40;99.90
8008;DHT22;4049;49.468;11.200;2023-01-31T13:56:21;3.40;99.90
8008;DHT22;4049;49.468;11.200;2023-01-31T13:58:49;3.40;99.90
8008;DHT22;4049;49.468;11.200;2023-01-31T14:01:20;3.40;99.90
8008;DHT22;4049;49.468;11.200;2023-01-31T14:04:23;3.30;99.90
8008;DHT22;4049;49.468;11.200;2023-01-31T14:10:25;3.40;99.90
8008;DHT22;4049;49.468;11.200;2023-01-31T14:16:37;3.30;99.90
8008;DHT22;4049;49.468;11.200;2023-01-31T14:22:14;3.30;99.90
8008;DHT22;4049;49.468;11.200;2023-01-31T14:25:03;3.30;99.90
8008;DHT22;4049;49.468;11.200;2023-01-31T14:27:35;3.30;99.90
8008;DHT22;4049;49.468;11.200;2023-01-31T14:30:33;3.30;99.90
8008;DHT22;4049;49.468;11.200;2023-01-31T14:33:07;3.30;99.90
8008;DHT22;4049;49.468;11.200;2023-01-31T14:36:03;3.30;99.90
8008;DHT22;4049;49.468;11.200;2023-01-31T14:41:51;3.30;99.90
8008;DHT22;4049;49.468;11.200;2023-01-31T14:44:29;3.30;99.90
8008;DHT22;4049;49.468;11.200;2023-01-31T14:47:07;3.30;99.90
8008;DHT22;4049;49.468;11.200;2023-01-31T14:52:43;3.30;99.90
8008;DHT22;4049;49.468;11.200;2023-01-31T14:55:30;3.30;99.90
8008;DHT22;4049;49.468;11.200;2023-01-31T14:58:02;3.30;99.90
8008;DHT22;4049;49.468;11.200;2023-01-31T15:00:34;3.30;99.90
8008;DHT22;4049;49.468;11.200;2023-01-31T15:03:04;3.30;99.90
8008;DHT22;4049;49.468;11.200;2023-01-31T15:05:44;3.30;99.90
8008;DHT22;4049;49.468;11.200;2023-01-31T15:08:42;3.30;99.90
8008;DHT22;4049;49.468;11.200;2023-01-31T15:11:35;3.40;99.90
8008;DHT22;4049;49.468;11.200;2023-01-31T15:14:19;3.30;99.90
8008;DHT22;4049;49.468;11.200;2023-01-31T15:16:54;3.40;99.90
8008;DHT22;4049;49.468;11.200;2023-01-31T15:19:23;3.40;99.90
8008;DHT22;4049;49.468;11.200;2023-01-31T15:21:53;3.40;99.90
8008;DHT22;4049;49.468;11.200;2023-01-31T15:24:24;3.40;99.90
8008;DHT22;4049;49.468;11.200;2023-01-31T15:26:53;3.40;99.90
8008;DHT22;4049;49.468;11.200;2023-01-31T15:29:22;3.40;99.90
8008;DHT22;4049;49.468;11.200;2023-01-31T15:31:55;3.40;99.90
8008;DHT22;4049;49.468;11.200;2023-01-31T15:34:28;3.40;99.90
8008;DHT22;4049;49.468;11.200;2023-01-31T15:37:01;3.40;99.90
8008;DHT22;4049;49.468;11.200;2023-01-31T15:39:33;3.40;99.90
8008;DHT22;4049;49.468;11.200;2023-01-31T15:42:20;3.40;99.90
8008;DHT22;4049;49.468;11.200;2023-01-31T15:44:47;3.40;99.90
8008;DHT22;4049;49.468;11.200;2023-01-31T15:47:20;3.40;99.90
8008;DHT22;4049;49.468;11.200;2023-01-31T15:49:48;3.40;99.90
8008;DHT22;4049;49.468;11.200;2023-01-31T15:52:17;3.40;99.90
8008;DHT22;4049;49.468;11.200;2023-01-31T15:54:52;3.50;99.90
8008;DHT22;4049;49.468;11.200;2023-01-31T15:57:19;3.50;99.90
8008;DHT22;4049;49.468;11.200;2023-01-31T15:59:47;3.50;99.90
8008;DHT22;4049;49.468;11.200;2023-01-31T16:02:21;3.50;99.90
8008;DHT22;4049;49.468;11.200;2023-01-31T16:04:50;3.50;99.90
8008;DHT22;4049;49.468;11.200;2023-01-31T16:07:18;3.40;99.90
8008;DHT22;4049;49.468;11.200;2023-01-31T16:09:47;3.50;99.90
8008;DHT22;4049;49.468;11.200;2023-01-31T16:12:15;3.40;99.90
8008;DHT22;4049;49.468;11.200;2023-01-31T16:14:45;3.50;99.90
8008;DHT22;4049;49.468;11.200;2023-01-31T16:17:13;3.50;99.90
8008;DHT22;4049;49.468;11.200;2023-01-31T16:19:41;3.50;99.90
8008;DHT22;4049;49.468;11.200;2023-01-31T16:22:26;3.50;99.90
8008;DHT22;4049;49.468;11.200;2023-01-31T16:24:58;3.50;99.90
8008;DHT22;4049;49.468;11.200;2023-01-31T16:27:27;3.50;99.90
8008;DHT22;4049;49.468;11.200;2023-01-31T16:29:56;3.50;99.90
8008;DHT22;4049;49.468;11.200;2023-01-31T16:32:25;3.50;99.90
8008;DHT22;4049;49.468;11.200;2023-01-31T16:34:56;3.50;99.90
8008;DHT22;4049;49.468;11.200;2023-01-31T16:37:32;3.50;99.90
8008;DHT22;4049;49.468;11.200;2023-01-31T16:40:02;3.50;99.90
8008;DHT22;4049;49.468;11.200;2023-01-31T16:42:30;3.50;99.90
8008;DHT22;4049;49.468;11.200;2023-01-31T16:44:59;3.50;99.90
8008;DHT22;4049;49.468;11.200;2023-01-31T16:47:45;3.50;99.90
8008;DHT22;4049;49.468;11.200;2023-01-31T16:50:31;3.50;99.90
8008;DHT22;4049;49.468;11.200;2023-01-31T16:53:26;3.50;99.90